sensor_id;sensor_type;location;lat;lon;timestamp;pressure;altitude;pressure_sealevel;temperature;humidity
3082;BME280;1551;51.046;7.010;2022-10-31T00:00:30;101401.00;;;14.46;81.46
3082;BME280;1551;51.046;7.010;2022-10-31T00:03:18;101398.47;;;14.45;81.28
3082;BME280;1551;51.046;7.010;2022-10-31T00:06:07;101405.44;;;14.38;82.08
3082;BME280;1551;51.046;7.010;2022-10-31T00:08:58;101407.97;;;14.41;81.81
3082;BME280;1551;51.046;7.010;2022-10-31T00:11:48;101404.59;;;14.36;81.03
3082;BME280;1551;51.046;7.010;2022-10-31T00:14:37;101398.66;;;14.28;82.05
3082;BME280;1551;51.046;7.010;2022-10-31T00:17:26;101405.50;;;14.32;81.94
3082;BME280;1551;51.046;7.010;2022-10-31T00:20:15;101411.56;;;14.27;82.21
3082;BME280;1551;51.046;7.010;2022-10-31T00:23:05;101410.00;;;14.18;83.01
3082;BME280;1551;51.046;7.010;2022-10-31T00:25:54;101396.38;;;14.07;82.58
3082;BME280;1551;51.046;7.010;2022-10-31T00:28:44;101395.50;;;14.11;82.31
3082;BME280;1551;51.046;7.010;2022-10-31T00:31:33;101398.06;;;14.11;82.45
3082;BME280;1551;51.046;7.010;2022-10-31T00:34:23;101402.25;;;14.18;82.40
3082;BME280;1551;51.046;7.010;2022-10-31T00:37:12;101392.00;;;14.15;82.36
3082;BME280;1551;51.046;7.010;2022-10-31T00:40:01;101388.47;;;14.22;81.68
3082;BME280;1551;51.046;7.010;2022-10-31T00:42:50;101385.91;;;14.21;81.29
3082;BME280;1551;51.046;7.010;2022-10-31T00:45:39;101397.94;;;14.19;81.57
3082;BME280;1551;51.046;7.010;2022-10-31T00:48:29;101411.84;;;14.06;81.98
3082;BME280;1551;51.046;7.010;2022-10-31T00:51:19;101399.06;;;13.98;82.72
3082;BME280;1551;51.046;7.010;2022-10-31T00:54:08;101415.22;;;14.11;82.46
3082;BME280;1551;51.046;7.010;2022-10-31T00:56:57;101417.81;;;14.11;82.52
3082;BME280;1551;51.046;7.010;2022-10-31T00:59:46;101413.69;;;13.96;82.55
3082;BME280;1551;51.046;7.010;2022-10-31T01:02:36;101431.47;;;14.14;82.52
3082;BME280;1551;51.046;7.010;2022-10-31T01:05:25;101427.94;;;14.21;82.39
3082;BME280;1551;51.046;7.010;2022-10-31T01:08:14;101428.88;;;14.17;82.08
3082;BME280;1551;51.046;7.010;2022-10-31T01:11:14;101397.38;;;13.99;82.41
3082;BME280;1551;51.046;7.010;2022-10-31T01:14:04;101435.72;;;14.17;82.76
3082;BME280;1551;51.046;7.010;2022-10-31T01:16:54;101421.97;;;14.19;82.55
3082;BME280;1551;51.046;7.010;2022-10-31T01:19:44;101403.91;;;14.21;82.14
3082;BME280;1551;51.046;7.010;2022-10-31T01:22:33;101412.59;;;14.14;81.82
3082;BME280;1551;51.046;7.010;2022-10-31T01:25:23;101416.91;;;14.12;82.23
3082;BME280;1551;51.046;7.010;2022-10-31T01:28:12;101401.41;;;14.18;82.19
3082;BME280;1551;51.046;7.010;2022-10-31T01:31:07;101400.44;;;14.23;82.23
3082;BME280;1551;51.046;7.010;2022-10-31T01:33:58;101400.44;;;14.25;81.96
3082;BME280;1551;51.046;7.010;2022-10-31T01:36:47;101392.78;;;14.19;82.38
3082;BME280;1551;51.046;7.010;2022-10-31T01:39:40;101391.94;;;14.20;82.98
3082;BME280;1551;51.046;7.010;2022-10-31T01:42:29;101386.69;;;14.26;83.13
3082;BME280;1551;51.046;7.010;2022-10-31T01:45:18;101378.97;;;14.26;83.48
3082;BME280;1551;51.046;7.010;2022-10-31T01:48:12;101374.69;;;14.23;83.26
3082;BME280;1551;51.046;7.010;2022-10-31T01:51:02;101374.00;;;14.12;83.34
3082;BME280;1551;51.046;7.010;2022-10-31T01:53:56;101368.09;;;14.06;83.17
3082;BME280;1551;51.046;7.010;2022-10-31T01:56:50;101374.91;;;14.10;83.15
3082;BME280;1551;51.046;7.010;2022-10-31T01:59:45;101360.22;;;14.16;82.53
3082;BME280;1551;51.046;7.010;2022-10-31T02:02:36;101364.63;;;14.07;82.18
3082;BME280;1551;51.046;7.010;2022-10-31T02:05:27;101349.50;;;13.84;82.87
3082;BME280;1551;51.046;7.010;2022-10-31T02:08:21;101361.44;;;13.90;83.49
3082;BME280;1551;51.046;7.010;2022-10-31T02:11:13;101359.69;;;13.95;83.74
3082;BME280;1551;51.046;7.010;2022-10-31T02:14:04;101355.28;;;14.01;82.63
3082;BME280;1551;51.046;7.010;2022-10-31T02:16:53;101351.88;;;13.99;82.37
3082;BME280;1551;51.046;7.010;2022-10-31T02:19:57;101362.31;;;13.89;82.39
3082;BME280;1551;51.046;7.010;2022-10-31T02:23:17;101369.28;;;13.79;83.06
3082;BME280;1551;51.046;7.010;2022-10-31T02:32:47;101370.34;;;13.63;84.28
3082;BME280;1551;51.046;7.010;2022-10-31T02:35:57;101384.78;;;13.74;83.48
3082;BME280;1551;51.046;7.010;2022-10-31T02:39:01;101384.00;;;13.71;83.40
3082;BME280;1551;51.046;7.010;2022-10-31T02:42:18;101377.22;;;13.64;83.74
3082;BME280;1551;51.046;7.010;2022-10-31T02:45:14;101389.94;;;13.76;82.62
3082;BME280;1551;51.046;7.010;2022-10-31T02:48:10;101365.16;;;13.67;82.38
3082;BME280;1551;51.046;7.010;2022-10-31T02:51:04;101378.78;;;13.75;82.40
3082;BME280;1551;51.046;7.010;2022-10-31T02:53:53;101383.16;;;13.67;82.27
3082;BME280;1551;51.046;7.010;2022-10-31T02:56:43;101391.00;;;13.57;82.80
3082;BME280;1551;51.046;7.010;2022-10-31T02:59:33;101388.53;;;13.48;83.84
3082;BME280;1551;51.046;7.010;2022-10-31T03:05:37;101386.72;;;13.56;83.95
3082;BME280;1551;51.046;7.010;2022-10-31T03:08:35;101362.78;;;13.49;83.32
3082;BME280;1551;51.046;7.010;2022-10-31T03:11:34;101385.03;;;13.53;83.91
3082;BME280;1551;51.046;7.010;2022-10-31T03:14:39;101378.97;;;13.57;84.18
3082;BME280;1551;51.046;7.010;2022-10-31T03:17:36;101379.03;;;13.53;84.08
3082;BME280;1551;51.046;7.010;2022-10-31T03:20:33;101389.25;;;13.57;84.19
3082;BME280;1551;51.046;7.010;2022-10-31T03:23:25;101387.72;;;13.44;84.65
3082;BME280;1551;51.046;7.010;2022-10-31T03:26:15;101382.56;;;13.44;84.63
3082;BME280;1551;51.046;7.010;2022-10-31T03:29:07;101385.19;;;13.40;84.80
3082;BME280;1551;51.046;7.010;2022-10-31T03:32:15;101392.06;;;13.41;84.93
3082;BME280;1551;51.046;7.010;2022-10-31T03:35:09;101390.28;;;13.44;84.88
3082;BME280;1551;51.046;7.010;2022-10-31T03:38:02;101392.81;;;13.46;84.12
3082;BME280;1551;51.046;7.010;2022-10-31T03:40:54;101382.59;;;13.43;83.71
3082;BME280;1551;51.046;7.010;2022-10-31T03:43:54;101380.00;;;13.41;83.48
3082;BME280;1551;51.046;7.010;2022-10-31T03:46:45;101375.84;;;13.33;83.65
3082;BME280;1551;51.046;7.010;2022-10-31T03:49:35;101379.22;;;13.38;84.16
3082;BME280;1551;51.046;7.010;2022-10-31T03:52:34;101379.13;;;13.45;83.35
3082;BME280;1551;51.046;7.010;2022-10-31T03:55:59;101387.66;;;13.49;82.97
3082;BME280;1551;51.046;7.010;2022-10-31T03:58:47;101385.25;;;13.32;83.27
3082;BME280;1551;51.046;7.010;2022-10-31T04:01:42;101369.84;;;13.34;83.89
3082;BME280;1551;51.046;7.010;2022-10-31T04:04:36;101375.81;;;13.34;83.71
3082;BME280;1551;51.046;7.010;2022-10-31T04:07:31;101368.13;;;13.33;84.20
3082;BME280;1551;51.046;7.010;2022-10-31T04:10:22;101371.53;;;13.36;83.65
3082;BME280;1551;51.046;7.010;2022-10-31T04:13:21;101372.47;;;13.25;83.34
3082;BME280;1551;51.046;7.010;2022-10-31T04:16:20;101373.38;;;13.22;83.93
3082;BME280;1551;51.046;7.010;2022-10-31T04:19:12;101374.13;;;13.30;83.94
3082;BME280;1551;51.046;7.010;2022-10-31T04:22:02;101382.69;;;13.34;83.64
3082;BME280;1551;51.046;7.010;2022-10-31T04:24:52;101374.09;;;13.35;84.34
3082;BME280;1551;51.046;7.010;2022-10-31T04:27:41;101367.28;;;13.34;83.52
3082;BME280;1551;51.046;7.010;2022-10-31T04:30:32;101369.75;;;13.40;83.24
3082;BME280;1551;51.046;7.010;2022-10-31T04:33:21;101366.47;;;13.26;83.77
3082;BME280;1551;51.046;7.010;2022-10-31T04:36:11;101362.25;;;13.22;85.08
3082;BME280;1551;51.046;7.010;2022-10-31T04:39:00;101365.66;;;13.21;84.16
3082;BME280;1551;51.046;7.010;2022-10-31T04:42:07;101357.09;;;13.22;84.58
3082;BME280;1551;51.046;7.010;2022-10-31T04:44:56;101354.47;;;13.25;84.56
3082;BME280;1551;51.046;7.010;2022-10-31T04:47:46;101356.22;;;13.23;84.83
3082;BME280;1551;51.046;7.010;2022-10-31T04:50:35;101357.03;;;13.25;85.36
3082;BME280;1551;51.046;7.010;2022-10-31T04:53:24;101355.28;;;13.30;85.23
3082;BME280;1551;51.046;7.010;2022-10-31T04:56:39;101356.22;;;13.23;84.81
3082;BME280;1551;51.046;7.010;2022-10-31T04:59:34;101349.53;;;13.08;84.91
3082;BME280;1551;51.046;7.010;2022-10-31T05:02:26;101358.97;;;13.01;85.33
3082;BME280;1551;51.046;7.010;2022-10-31T05:05:23;101346.97;;;13.06;85.86
3082;BME280;1551;51.046;7.010;2022-10-31T05:08:13;101344.25;;;13.20;85.07
3082;BME280;1551;51.046;7.010;2022-10-31T05:11:03;101338.19;;;13.26;84.59
3082;BME280;1551;51.046;7.010;2022-10-31T05:13:52;101333.03;;;13.27;84.19
3082;BME280;1551;51.046;7.010;2022-10-31T05:17:01;101322.00;;;13.18;84.14
3082;BME280;1551;51.046;7.010;2022-10-31T05:20:14;101317.75;;;13.15;84.34
3082;BME280;1551;51.046;7.010;2022-10-31T05:23:29;101317.75;;;13.14;85.03
3082;BME280;1551;51.046;7.010;2022-10-31T05:26:18;101317.78;;;13.10;85.03
3082;BME280;1551;51.046;7.010;2022-10-31T05:29:07;101319.47;;;13.15;85.22
3082;BME280;1551;51.046;7.010;2022-10-31T05:31:57;101327.16;;;13.16;85.38
3082;BME280;1551;51.046;7.010;2022-10-31T05:35:08;101319.56;;;13.05;85.51
3082;BME280;1551;51.046;7.010;2022-10-31T05:38:17;101325.59;;;13.00;86.33
3082;BME280;1551;51.046;7.010;2022-10-31T05:41:06;101320.41;;;13.03;86.30
3082;BME280;1551;51.046;7.010;2022-10-31T05:43:56;101326.41;;;13.06;86.00
3082;BME280;1551;51.046;7.010;2022-10-31T05:46:50;101316.94;;;13.08;85.97
3082;BME280;1551;51.046;7.010;2022-10-31T05:50:03;101313.56;;;13.08;85.69
3082;BME280;1551;51.046;7.010;2022-10-31T05:53:09;101316.94;;;13.08;86.08
3082;BME280;1551;51.046;7.010;2022-10-31T05:56:00;101317.84;;;13.03;86.45
3082;BME280;1551;51.046;7.010;2022-10-31T05:58:49;101314.44;;;13.02;86.45
3082;BME280;1551;51.046;7.010;2022-10-31T06:01:38;101316.13;;;13.05;86.48
3082;BME280;1551;51.046;7.010;2022-10-31T06:04:33;101323.88;;;12.99;86.24
3082;BME280;1551;51.046;7.010;2022-10-31T06:07:25;101316.25;;;12.91;86.07
3082;BME280;1551;51.046;7.010;2022-10-31T06:10:16;101312.78;;;12.95;85.84
3082;BME280;1551;51.046;7.010;2022-10-31T06:13:05;101316.16;;;13.00;85.91
3082;BME280;1551;51.046;7.010;2022-10-31T06:16:13;101318.72;;;12.99;85.63
3082;BME280;1551;51.046;7.010;2022-10-31T06:19:02;101302.50;;;12.95;85.93
3082;BME280;1551;51.046;7.010;2022-10-31T06:21:51;101318.69;;;13.03;85.44
3082;BME280;1551;51.046;7.010;2022-10-31T06:24:40;101316.13;;;13.05;85.28
3082;BME280;1551;51.046;7.010;2022-10-31T06:27:50;101313.56;;;13.08;84.87
3082;BME280;1551;51.046;7.010;2022-10-31T06:30:42;101306.72;;;13.02;85.05
3082;BME280;1551;51.046;7.010;2022-10-31T06:33:32;101322.16;;;12.99;85.09
3082;BME280;1551;51.046;7.010;2022-10-31T06:36:24;101329.84;;;13.02;85.19
3082;BME280;1551;51.046;7.010;2022-10-31T06:39:15;101328.09;;;13.09;85.45
3082;BME280;1551;51.046;7.010;2022-10-31T06:42:04;101325.44;;;13.17;85.00
3082;BME280;1551;51.046;7.010;2022-10-31T06:44:54;101321.13;;;13.19;84.71
3082;BME280;1551;51.046;7.010;2022-10-31T06:48:04;101327.13;;;13.19;84.68
3082;BME280;1551;51.046;7.010;2022-10-31T06:51:00;101325.34;;;13.26;84.43
3082;BME280;1551;51.046;7.010;2022-10-31T06:53:50;101325.31;;;13.27;84.51
3082;BME280;1551;51.046;7.010;2022-10-31T06:56:40;101330.41;;;13.32;84.67
3082;BME280;1551;51.046;7.010;2022-10-31T06:59:29;101328.66;;;13.35;84.63
3082;BME280;1551;51.046;7.010;2022-10-31T07:02:37;101332.84;;;13.44;84.33
3082;BME280;1551;51.046;7.010;2022-10-31T07:05:29;101322.53;;;13.47;84.32
3082;BME280;1551;51.046;7.010;2022-10-31T07:08:18;101323.31;;;13.53;84.28
3082;BME280;1551;51.046;7.010;2022-10-31T07:11:07;101319.84;;;13.56;83.99
3082;BME280;1551;51.046;7.010;2022-10-31T07:13:56;101319.06;;;13.52;83.99
3082;BME280;1551;51.046;7.010;2022-10-31T07:16:53;101327.47;;;13.63;84.14
3082;BME280;1551;51.046;7.010;2022-10-31T07:19:53;101326.50;;;13.73;83.50
3082;BME280;1551;51.046;7.010;2022-10-31T07:22:43;101317.88;;;13.77;83.66
3082;BME280;1551;51.046;7.010;2022-10-31T07:25:34;101326.22;;;13.93;83.02
3082;BME280;1551;51.046;7.010;2022-10-31T07:28:30;101329.59;;;13.98;82.74
3082;BME280;1551;51.046;7.010;2022-10-31T07:31:21;101332.91;;;14.05;82.49
3082;BME280;1551;51.046;7.010;2022-10-31T07:34:10;101345.00;;;14.00;82.59
3082;BME280;1551;51.046;7.010;2022-10-31T07:37:22;101344.06;;;14.05;82.99
3082;BME280;1551;51.046;7.010;2022-10-31T07:40:11;101347.53;;;14.04;82.82
3082;BME280;1551;51.046;7.010;2022-10-31T07:43:01;101349.09;;;14.16;82.53
3082;BME280;1551;51.046;7.010;2022-10-31T07:46:21;101355.75;;;14.30;82.46
3082;BME280;1551;51.046;7.010;2022-10-31T07:49:29;101359.03;;;14.41;82.71
3082;BME280;1551;51.046;7.010;2022-10-31T07:52:37;101350.38;;;14.45;81.92
3082;BME280;1551;51.046;7.010;2022-10-31T07:55:45;101346.66;;;14.63;81.95
3082;BME280;1551;51.046;7.010;2022-10-31T07:58:36;101341.34;;;14.74;81.32
3082;BME280;1551;51.046;7.010;2022-10-31T08:01:25;101348.84;;;14.87;80.82
3082;BME280;1551;51.046;7.010;2022-10-31T08:04:34;101344.41;;;14.94;80.11
3082;BME280;1551;51.046;7.010;2022-10-31T08:07:42;101350.31;;;15.00;79.70
3082;BME280;1551;51.046;7.010;2022-10-31T08:10:40;101347.59;;;15.08;79.39
3082;BME280;1551;51.046;7.010;2022-10-31T08:13:29;101346.72;;;15.09;79.17
3082;BME280;1551;51.046;7.010;2022-10-31T08:16:20;101340.69;;;15.10;79.18
3082;BME280;1551;51.046;7.010;2022-10-31T08:19:17;101345.75;;;15.14;78.62
3082;BME280;1551;51.046;7.010;2022-10-31T08:22:06;101341.34;;;15.21;79.19
3082;BME280;1551;51.046;7.010;2022-10-31T08:24:55;101340.38;;;15.27;78.77
3082;BME280;1551;51.046;7.010;2022-10-31T08:27:49;101336.88;;;15.31;79.12
3082;BME280;1551;51.046;7.010;2022-10-31T08:30:41;101332.41;;;15.40;78.94
3082;BME280;1551;51.046;7.010;2022-10-31T08:33:49;101337.50;;;15.45;78.53
3082;BME280;1551;51.046;7.010;2022-10-31T08:36:41;101336.47;;;15.53;78.00
3082;BME280;1551;51.046;7.010;2022-10-31T08:39:43;101340.56;;;15.63;77.91
3082;BME280;1551;51.046;7.010;2022-10-31T08:42:33;101311.31;;;15.61;77.74
3082;BME280;1551;51.046;7.010;2022-10-31T08:45:24;101340.16;;;15.81;77.92
3082;BME280;1551;51.046;7.010;2022-10-31T08:48:15;101327.06;;;15.91;76.98
3082;BME280;1551;51.046;7.010;2022-10-31T08:51:05;101325.09;;;16.02;76.54
3082;BME280;1551;51.046;7.010;2022-10-31T08:53:54;101322.16;;;16.17;76.55
3082;BME280;1551;51.046;7.010;2022-10-31T08:56:43;101315.81;;;16.30;76.35
3082;BME280;1551;51.046;7.010;2022-10-31T08:59:49;101306.97;;;16.40;76.21
3082;BME280;1551;51.046;7.010;2022-10-31T09:02:58;101312.09;;;16.41;75.65
3082;BME280;1551;51.046;7.010;2022-10-31T09:05:48;101312.88;;;16.45;75.31
3082;BME280;1551;51.046;7.010;2022-10-31T09:08:37;101313.56;;;16.55;74.94
3082;BME280;1551;51.046;7.010;2022-10-31T09:11:26;101310.78;;;16.62;74.54
3082;BME280;1551;51.046;7.010;2022-10-31T09:14:38;101307.41;;;16.59;74.46
3082;BME280;1551;51.046;7.010;2022-10-31T09:17:48;101304.63;;;16.66;74.15
3082;BME280;1551;51.046;7.010;2022-10-31T09:20:59;101299.34;;;16.71;74.48
3082;BME280;1551;51.046;7.010;2022-10-31T09:23:50;101300.69;;;16.85;74.39
3082;BME280;1551;51.046;7.010;2022-10-31T09:26:39;101295.19;;;16.97;74.18
3082;BME280;1551;51.046;7.010;2022-10-31T09:29:46;101293.25;;;17.05;73.40
3082;BME280;1551;51.046;7.010;2022-10-31T09:32:36;101283.44;;;17.16;73.18
3082;BME280;1551;51.046;7.010;2022-10-31T09:35:28;101292.13;;;17.45;72.41
3082;BME280;1551;51.046;7.010;2022-10-31T09:38:19;101280.09;;;17.74;71.37
3082;BME280;1551;51.046;7.010;2022-10-31T09:44:22;101275.69;;;18.04;69.76
3082;BME280;1551;51.046;7.010;2022-10-31T09:47:41;101277.13;;;18.13;69.46
3082;BME280;1551;51.046;7.010;2022-10-31T09:51:00;101272.78;;;18.67;68.50
3082;BME280;1551;51.046;7.010;2022-10-31T09:54:25;101273.38;;;19.48;66.28
3082;BME280;1551;51.046;7.010;2022-10-31T09:57:30;101266.81;;;20.04;64.43
3082;BME280;1551;51.046;7.010;2022-10-31T10:00:22;101256.34;;;20.69;62.45
3082;BME280;1551;51.046;7.010;2022-10-31T10:03:22;101260.06;;;21.60;59.38
3082;BME280;1551;51.046;7.010;2022-10-31T10:06:18;101254.13;;;22.46;57.21
3082;BME280;1551;51.046;7.010;2022-10-31T10:09:34;101258.47;;;23.30;54.09
3082;BME280;1551;51.046;7.010;2022-10-31T10:12:55;101241.56;;;24.29;51.93
3082;BME280;1551;51.046;7.010;2022-10-31T10:16:16;101250.09;;;25.33;49.54
3082;BME280;1551;51.046;7.010;2022-10-31T10:19:28;101245.97;;;25.57;48.30
3082;BME280;1551;51.046;7.010;2022-10-31T10:22:54;101242.19;;;26.02;46.75
3082;BME280;1551;51.046;7.010;2022-10-31T10:25:40;101234.19;;;26.43;45.82
3082;BME280;1551;51.046;7.010;2022-10-31T10:28:32;101236.75;;;26.82;44.98
3082;BME280;1551;51.046;7.010;2022-10-31T10:31:36;101242.13;;;26.81;44.74
3082;BME280;1551;51.046;7.010;2022-10-31T10:34:38;101233.69;;;27.62;43.34
3082;BME280;1551;51.046;7.010;2022-10-31T10:37:36;101220.16;;;28.38;41.93
3082;BME280;1551;51.046;7.010;2022-10-31T10:40:27;101226.50;;;28.81;40.54
3082;BME280;1551;51.046;7.010;2022-10-31T10:43:22;101205.56;;;26.78;42.93
3082;BME280;1551;51.046;7.010;2022-10-31T10:46:43;101191.47;;;24.93;46.77
3082;BME280;1551;51.046;7.010;2022-10-31T10:49:54;101182.78;;;24.21;48.21
3082;BME280;1551;51.046;7.010;2022-10-31T10:53:02;101186.78;;;24.70;47.76
3082;BME280;1551;51.046;7.010;2022-10-31T10:56:20;101192.66;;;24.74;46.95
3082;BME280;1551;51.046;7.010;2022-10-31T10:59:13;101180.34;;;24.32;47.61
3082;BME280;1551;51.046;7.010;2022-10-31T11:02:16;101166.91;;;23.78;48.13
3082;BME280;1551;51.046;7.010;2022-10-31T11:05:15;101159.59;;;23.22;49.72
3082;BME280;1551;51.046;7.010;2022-10-31T11:08:07;101139.38;;;23.26;50.26
3082;BME280;1551;51.046;7.010;2022-10-31T11:13:48;101144.75;;;23.70;49.60
3082;BME280;1551;51.046;7.010;2022-10-31T11:16:42;101157.94;;;23.53;49.90
3082;BME280;1551;51.046;7.010;2022-10-31T11:19:33;101157.16;;;23.19;51.02
3082;BME280;1551;51.046;7.010;2022-10-31T11:22:21;101152.19;;;23.31;51.04
3082;BME280;1551;51.046;7.010;2022-10-31T11:25:29;101156.41;;;23.94;49.90
3082;BME280;1551;51.046;7.010;2022-10-31T11:28:18;101148.88;;;24.04;49.20
3082;BME280;1551;51.046;7.010;2022-10-31T11:31:13;101150.94;;;24.42;48.24
3082;BME280;1551;51.046;7.010;2022-10-31T11:34:11;101148.16;;;24.88;46.86
3082;BME280;1551;51.046;7.010;2022-10-31T11:37:15;101138.84;;;25.24;46.22
3082;BME280;1551;51.046;7.010;2022-10-31T11:40:06;101129.41;;;25.49;45.42
3082;BME280;1551;51.046;7.010;2022-10-31T11:42:57;101135.75;;;25.18;44.90
3082;BME280;1551;51.046;7.010;2022-10-31T11:45:47;101125.50;;;24.30;47.08
3082;BME280;1551;51.046;7.010;2022-10-31T11:48:37;101121.81;;;23.75;47.97
3082;BME280;1551;51.046;7.010;2022-10-31T11:51:29;101119.84;;;23.78;47.78
3082;BME280;1551;51.046;7.010;2022-10-31T11:54:24;101112.31;;;24.18;47.51
3082;BME280;1551;51.046;7.010;2022-10-31T11:57:44;101102.69;;;25.56;44.60
3082;BME280;1551;51.046;7.010;2022-10-31T12:00:37;101084.53;;;26.43;42.69
3082;BME280;1551;51.046;7.010;2022-10-31T12:03:44;101094.03;;;26.94;41.57
3082;BME280;1551;51.046;7.010;2022-10-31T12:06:41;101093.56;;;27.60;41.25
3082;BME280;1551;51.046;7.010;2022-10-31T12:09:36;101072.53;;;28.17;39.99
3082;BME280;1551;51.046;7.010;2022-10-31T12:12:29;101082.25;;;28.50;38.65
3082;BME280;1551;51.046;7.010;2022-10-31T12:15:27;101083.44;;;28.24;39.02
3082;BME280;1551;51.046;7.010;2022-10-31T12:18:28;101084.41;;;28.23;38.95
3082;BME280;1551;51.046;7.010;2022-10-31T12:21:24;101077.34;;;28.34;39.02
3082;BME280;1551;51.046;7.010;2022-10-31T12:24:39;101073.88;;;28.67;37.86
3082;BME280;1551;51.046;7.010;2022-10-31T12:30:58;101056.91;;;28.60;37.28
3082;BME280;1551;51.046;7.010;2022-10-31T12:45:59;101020.22;;;26.12;40.37
3082;BME280;1551;51.046;7.010;2022-10-31T12:55:01;100999.44;;;24.52;44.45
3082;BME280;1551;51.046;7.010;2022-10-31T12:57:56;100987.47;;;24.20;45.51
3082;BME280;1551;51.046;7.010;2022-10-31T13:00:50;100983.19;;;24.05;45.40
3082;BME280;1551;51.046;7.010;2022-10-31T13:03:50;100973.00;;;23.86;46.16
3082;BME280;1551;51.046;7.010;2022-10-31T13:06:47;100960.28;;;23.80;46.49
3082;BME280;1551;51.046;7.010;2022-10-31T13:09:43;100961.53;;;23.45;47.09
3082;BME280;1551;51.046;7.010;2022-10-31T13:12:34;100938.22;;;23.26;47.78
3082;BME280;1551;51.046;7.010;2022-10-31T13:15:27;100945.16;;;23.27;47.84
3082;BME280;1551;51.046;7.010;2022-10-31T13:18:47;100940.34;;;23.35;47.78
3082;BME280;1551;51.046;7.010;2022-10-31T13:21:49;100930.09;;;23.16;48.21
3082;BME280;1551;51.046;7.010;2022-10-31T13:25:13;100931.91;;;23.00;48.83
3082;BME280;1551;51.046;7.010;2022-10-31T13:28:14;100916.06;;;23.03;48.81
3082;BME280;1551;51.046;7.010;2022-10-31T13:31:04;100898.84;;;23.15;48.59
3082;BME280;1551;51.046;7.010;2022-10-31T13:33:57;100913.53;;;23.32;48.14
3082;BME280;1551;51.046;7.010;2022-10-31T13:37:50;100915.56;;;23.26;48.41
3082;BME280;1551;51.046;7.010;2022-10-31T13:40:31;100909.19;;;23.16;48.77
3082;BME280;1551;51.046;7.010;2022-10-31T13:46:34;100915.50;;;22.98;49.22
3082;BME280;1551;51.046;7.010;2022-10-31T13:52:16;100909.69;;;22.64;49.86
3082;BME280;1551;51.046;7.010;2022-10-31T13:55:35;100902.75;;;22.47;50.29
3082;BME280;1551;51.046;7.010;2022-10-31T13:58:27;100900.66;;;22.38;50.71
3082;BME280;1551;51.046;7.010;2022-10-31T14:01:19;100883.19;;;22.24;50.83
3082;BME280;1551;51.046;7.010;2022-10-31T14:04:18;100879.38;;;22.14;50.94
3082;BME280;1551;51.046;7.010;2022-10-31T14:07:17;100875.00;;;21.99;51.73
3082;BME280;1551;51.046;7.010;2022-10-31T14:10:26;100880.47;;;21.95;51.75
3082;BME280;1551;51.046;7.010;2022-10-31T14:13:25;100873.72;;;21.90;52.34
3082;BME280;1551;51.046;7.010;2022-10-31T14:16:34;100873.00;;;21.71;52.61
3082;BME280;1551;51.046;7.010;2022-10-31T14:19:27;100852.16;;;21.71;52.70
3082;BME280;1551;51.046;7.010;2022-10-31T14:22:23;100856.69;;;21.68;53.14
3082;BME280;1551;51.046;7.010;2022-10-31T14:25:32;100825.50;;;21.66;52.95
3082;BME280;1551;51.046;7.010;2022-10-31T14:28:32;100826.53;;;21.64;53.25
3082;BME280;1551;51.046;7.010;2022-10-31T14:31:45;100818.94;;;21.59;53.24
3082;BME280;1551;51.046;7.010;2022-10-31T14:34:55;100815.50;;;21.59;53.29
3082;BME280;1551;51.046;7.010;2022-10-31T14:41:06;100809.09;;;21.49;53.55
3082;BME280;1551;51.046;7.010;2022-10-31T14:44:20;100808.41;;;21.45;53.67
3082;BME280;1551;51.046;7.010;2022-10-31T14:53:32;100814.53;;;21.29;53.96
3082;BME280;1551;51.046;7.010;2022-10-31T14:56:29;100810.84;;;21.33;54.26
3082;BME280;1551;51.046;7.010;2022-10-31T14:59:24;100799.72;;;21.29;54.05
3082;BME280;1551;51.046;7.010;2022-10-31T15:02:29;100802.09;;;21.34;54.13
3082;BME280;1551;51.046;7.010;2022-10-31T15:05:23;100798.41;;;21.38;54.11
3082;BME280;1551;51.046;7.010;2022-10-31T15:08:35;100793.22;;;21.38;54.01
3082;BME280;1551;51.046;7.010;2022-10-31T15:11:26;100780.09;;;21.39;54.16
3082;BME280;1551;51.046;7.010;2022-10-31T15:14:30;100781.59;;;21.43;53.70
3082;BME280;1551;51.046;7.010;2022-10-31T15:17:20;100768.81;;;21.39;53.85
3082;BME280;1551;51.046;7.010;2022-10-31T15:20:18;100760.78;;;21.43;53.62
3082;BME280;1551;51.046;7.010;2022-10-31T15:23:34;100752.34;;;21.22;53.49
3082;BME280;1551;51.046;7.010;2022-10-31T15:26:27;100757.13;;;21.14;53.83
3082;BME280;1551;51.046;7.010;2022-10-31T15:29:20;100753.94;;;21.09;53.57
3082;BME280;1551;51.046;7.010;2022-10-31T15:32:21;100738.41;;;21.23;53.34
3082;BME280;1551;51.046;7.010;2022-10-31T15:35:25;100729.50;;;21.28;52.11
3082;BME280;1551;51.046;7.010;2022-10-31T15:38:14;100716.88;;;21.04;52.30
3082;BME280;1551;51.046;7.010;2022-10-31T15:41:17;100724.69;;;20.87;52.50
3082;BME280;1551;51.046;7.010;2022-10-31T15:44:33;100720.34;;;20.71;52.82
3082;BME280;1551;51.046;7.010;2022-10-31T15:47:24;100724.28;;;20.62;53.12
3082;BME280;1551;51.046;7.010;2022-10-31T15:50:28;100702.63;;;20.44;53.24
3082;BME280;1551;51.046;7.010;2022-10-31T15:53:34;100725.44;;;20.39;53.66
3082;BME280;1551;51.046;7.010;2022-10-31T15:56:26;100719.75;;;20.31;54.01
3082;BME280;1551;51.046;7.010;2022-10-31T15:59:22;100715.13;;;20.19;54.07
3082;BME280;1551;51.046;7.010;2022-10-31T16:02:13;100709.41;;;20.13;54.14
3082;BME280;1551;51.046;7.010;2022-10-31T16:05:16;100713.44;;;20.01;54.49
3082;BME280;1551;51.046;7.010;2022-10-31T16:11:37;100705.69;;;19.82;55.06
3082;BME280;1551;51.046;7.010;2022-10-31T16:14:30;100706.81;;;19.77;55.07
3082;BME280;1551;51.046;7.010;2022-10-31T16:17:22;100693.28;;;19.70;55.18
3082;BME280;1551;51.046;7.010;2022-10-31T16:20:22;100691.88;;;19.63;55.48
3082;BME280;1551;51.046;7.010;2022-10-31T16:23:16;100690.50;;;19.56;55.67
3082;BME280;1551;51.046;7.010;2022-10-31T16:26:07;100695.06;;;19.51;55.60
3082;BME280;1551;51.046;7.010;2022-10-31T16:28:57;100689.31;;;19.45;55.70
3082;BME280;1551;51.046;7.010;2022-10-31T16:31:46;100698.09;;;19.42;56.15
3082;BME280;1551;51.046;7.010;2022-10-31T16:34:35;100697.44;;;19.37;56.26
3082;BME280;1551;51.046;7.010;2022-10-31T16:37:24;100702.78;;;19.34;56.34
3082;BME280;1551;51.046;7.010;2022-10-31T16:40:14;100691.88;;;19.26;56.71
3082;BME280;1551;51.046;7.010;2022-10-31T16:43:03;100687.00;;;19.20;56.80